^^
Meteo Knjazevac Station Historical Data
Daily Summary for January 6, 2021 Units:  Both    English   Metric
Daily Weekly Monthly Yearly Custom
  High: Low: Average:
Temperature: 55.6 °F /  13.1 °C 48.6 °F /  9.2 °C 51.5 °F /  10.8 °C
Dew Point: 50.2 °F /  10.1 °C 46.8 °F /  8.2 °C 48.2 °F /  9 °C
Humidity: 94% 81% 89%
Wind Speed: 5mph /  8km/h - 1.5mph /  2.4km/h
Wind Gust: 6mph /  9.7km/h - -
Wind- - West
Pressure: 30.14 in /  1020.5 hPa 30.11 in /  1019.5 hPa -
Precipitation: 0.00 in /  0 mm    
Historical Graphs
 
 
Tabular Data for January 6, 2021
Time Temperature Dew Point Pressure Wind Wind Speed Wind Gust Humidity Rainfall Rate (Hourly) solar Conditions
00:00 55.6 °F /  13.1 °C 50.2 °F /  10.1 °C 30.14in /  1020.5hPa WNW 1mph /  1.6km/h 5mph /  8km/h 82% 0.00in /  0mm 0 W/m2
00:10 55.6 °F /  13.1 °C 49.8 °F /  9.9 °C 30.14in /  1020.5hPa Calm   2mph /  3.2km/h 81% 0.00in /  0mm 0 W/m2
00:20 54.9 °F /  12.7 °C 49.8 °F /  9.9 °C 30.14in /  1020.5hPa Calm   2mph /  3.2km/h 83% 0.00in /  0mm 0 W/m2
00:30 54.5 °F /  12.5 °C 49.8 °F /  9.9 °C 30.14in /  1020.5hPa WNW 1mph /  1.6km/h 2mph /  3.2km/h 84% 0.00in /  0mm 0 W/m2
00:40 54 °F /  12.2 °C 49.2 °F /  9.6 °C 30.14in /  1020.5hPa West 1mph /  1.6km/h 2mph /  3.2km/h 84% 0.00in /  0mm 0 W/m2
00:50 53.6 °F /  12 °C 49.2 °F /  9.6 °C 30.14in /  1020.5hPa West 1mph /  1.6km/h 2mph /  3.2km/h 85% 0.00in /  0mm 0 W/m2
01:00 53.2 °F /  11.8 °C 48.8 °F /  9.3 °C 30.14in /  1020.5hPa West 1mph /  1.6km/h 2mph /  3.2km/h 85% 0.00in /  0mm 0 W/m2
01:10 53.1 °F /  11.7 °C 49 °F /  9.4 °C 30.14in /  1020.5hPa West 1mph /  1.6km/h 3mph /  4.8km/h 86% 0.00in /  0mm 0 W/m2
01:20 52.7 °F /  11.5 °C 48.6 °F /  9.2 °C 30.14in /  1020.5hPa Calm   2mph /  3.2km/h 86% 0.00in /  0mm 0 W/m2
01:30 52.5 °F /  11.4 °C 48.5 °F /  9.2 °C 30.14in /  1020.5hPa Calm   2mph /  3.2km/h 86% 0.00in /  0mm 0 W/m2
01:40 52.3 °F /  11.3 °C 48.8 °F /  9.3 °C 30.14in /  1020.5hPa WNW 1mph /  1.6km/h 2mph /  3.2km/h 88% 0.00in /  0mm 0 W/m2
01:50 52.2 °F /  11.2 °C 48.7 °F /  9.3 °C 30.14in /  1020.5hPa WNW 3mph /  4.8km/h 5mph /  8km/h 88% 0.00in /  0mm 0 W/m2
02:00 52.2 °F /  11.2 °C 48.7 °F /  9.3 °C 30.14in /  1020.5hPa WNW 2mph /  3.2km/h 5mph /  8km/h 88% 0.00in /  0mm 0 W/m2
02:10 51.8 °F /  11 °C 48.4 °F /  9.1 °C 30.13in /  1020.2hPa West 2mph /  3.2km/h 5mph /  8km/h 88% 0.00in /  0mm 0 W/m2
02:20 51.6 °F /  10.9 °C 48.5 °F /  9.2 °C 30.13in /  1020.2hPa West 2mph /  3.2km/h 4mph /  6.4km/h 89% 0.00in /  0mm 0 W/m2
02:30 51.3 °F /  10.7 °C 48.2 °F /  9 °C 30.13in /  1020.2hPa West 2mph /  3.2km/h 3mph /  4.8km/h 89% 0.00in /  0mm 0 W/m2
02:40 51.1 °F /  10.6 °C 48 °F /  8.9 °C 30.13in /  1020.2hPa WNW 2mph /  3.2km/h 4mph /  6.4km/h 89% 0.00in /  0mm 0 W/m2
02:50 51 °F /  10.6 °C 47.9 °F /  8.8 °C 30.13in /  1020.2hPa WSW 2mph /  3.2km/h 3mph /  4.8km/h 89% 0.00in /  0mm 0 W/m2
03:00 50.5 °F /  10.3 °C 47.7 °F /  8.7 °C 30.13in /  1020.2hPa West 2mph /  3.2km/h 4mph /  6.4km/h 90% 0.00in /  0mm 0 W/m2
03:10 50.5 °F /  10.3 °C 47.7 °F /  8.7 °C 30.13in /  1020.2hPa WNW 2mph /  3.2km/h 3mph /  4.8km/h 90% 0.00in /  0mm 0 W/m2
03:20 50.2 °F /  10.1 °C 47.7 °F /  8.7 °C 30.12in /  1019.9hPa West 1mph /  1.6km/h 6mph /  9.7km/h 91% 0.00in /  0mm 0 W/m2
03:30 50.3 °F /  10.2 °C 47.7 °F /  8.7 °C 30.12in /  1019.9hPa West 2mph /  3.2km/h 3mph /  4.8km/h 91% 0.00in /  0mm 0 W/m2
03:40 50.2 °F /  10.1 °C 47.7 °F /  8.7 °C 30.12in /  1019.9hPa WNW 1mph /  1.6km/h 3mph /  4.8km/h 91% 0.00in /  0mm 0 W/m2
03:50 49.9 °F /  9.9 °C 47.4 °F /  8.6 °C 30.12in /  1019.9hPa WSW 5mph /  8km/h 5mph /  8km/h 91% 0.00in /  0mm 0 W/m2
04:00 49.6 °F /  9.8 °C 47.1 °F /  8.4 °C 30.12in /  1019.9hPa West 3mph /  4.8km/h 5mph /  8km/h 91% 0.00in /  0mm 0 W/m2
04:10 49.3 °F /  9.6 °C 46.8 °F /  8.2 °C 30.12in /  1019.9hPa WSW 2mph /  3.2km/h 5mph /  8km/h 91% 0.00in /  0mm 0 W/m2
04:20 49.1 °F /  9.5 °C 47.2 °F /  8.4 °C 30.11in /  1019.5hPa West 2mph /  3.2km/h 5mph /  8km/h 93% 0.00in /  0mm 0 W/m2
04:30 48.9 °F /  9.4 °C 47 °F /  8.3 °C 30.11in /  1019.5hPa WSW 1mph /  1.6km/h 3mph /  4.8km/h 93% 0.00in /  0mm 0 W/m2
04:40 48.9 °F /  9.4 °C 47 °F /  8.3 °C 30.12in /  1019.9hPa West 2mph /  3.2km/h 4mph /  6.4km/h 93% 0.00in /  0mm 0 W/m2
04:50 48.6 °F /  9.2 °C 47 °F /  8.3 °C 30.12in /  1019.9hPa West 1mph /  1.6km/h 5mph /  8km/h 94% 0.00in /  0mm 3 W/m2
05:00 48.7 °F /  9.3 °C 47.1 °F /  8.4 °C 30.12in /  1019.9hPa West 1mph /  1.6km/h 3mph /  4.8km/h 94% 0.00in /  0mm 7 W/m2
Knjazevac, Serbia
Compliments of Weather Underground - 2 mb